createdAt,value
2019-04-04T00:03:59.969Z,16.00
2019-04-04T00:09:05.535Z,16.40
2019-04-04T00:14:12.738Z,16.75
2019-04-04T00:19:15.384Z,16.60
2019-04-04T00:24:19.503Z,14.40
2019-04-04T00:29:23.594Z,13.75
2019-04-04T00:34:28.590Z,16.40
2019-04-04T00:39:32.830Z,14.50
2019-04-04T00:44:36.934Z,15.00
2019-04-04T00:49:40.979Z,14.25
2019-04-04T00:54:45.471Z,13.25
2019-04-04T00:59:49.563Z,13.75
2019-04-04T01:04:53.635Z,12.50
2019-04-04T01:09:57.667Z,13.40
2019-04-04T01:15:01.748Z,13.00
2019-04-04T01:20:08.549Z,13.50
2019-04-04T01:25:12.730Z,16.40
2019-04-04T01:30:17.007Z,13.25
2019-04-04T01:35:22.887Z,12.60
2019-04-04T01:40:26.850Z,12.25
2019-04-04T01:45:30.938Z,12.75
2019-04-04T01:50:34.943Z,9.25
2019-04-04T01:55:38.959Z,13.40
2019-04-04T02:00:44.006Z,12.60
2019-04-04T02:05:48.746Z,12.50
2019-04-04T02:10:52.915Z,11.75
2019-04-04T02:15:56.957Z,13.60
2019-04-04T02:21:00.991Z,14.00
2019-04-04T02:26:05.769Z,11.60
2019-04-04T02:31:10.438Z,10.60
2019-04-04T02:36:16.629Z,11.25
2019-04-04T02:41:20.291Z,10.40
2019-04-04T02:46:24.308Z,12.75
2019-04-04T02:51:28.485Z,11.00
2019-04-04T02:56:34.927Z,10.60
2019-04-04T03:01:38.377Z,11.80
2019-04-04T03:06:42.868Z,12.50
2019-04-04T03:11:47.071Z,10.75
2019-04-04T03:16:51.236Z,11.00
2019-04-04T03:21:56.148Z,11.20
2019-04-04T03:27:00.982Z,10.60
2019-04-04T03:32:05.079Z,11.00
2019-04-04T03:37:12.311Z,11.25
2019-04-04T03:42:14.953Z,10.50
2019-04-04T03:47:18.953Z,9.60
2019-04-04T03:52:23.013Z,11.25
2019-04-04T03:57:27.043Z,10.20
2019-04-04T04:02:31.157Z,8.80
2019-04-04T04:07:35.172Z,10.40
2019-04-04T04:12:42.695Z,9.25
2019-04-04T04:17:45.646Z,8.20
2019-04-04T04:22:51.527Z,9.40
2019-04-04T04:27:55.684Z,9.00
2019-04-04T04:32:59.822Z,7.25
2019-04-04T04:38:03.841Z,9.00
2019-04-04T04:43:07.865Z,8.50
2019-04-04T04:48:11.895Z,10.00
2019-04-04T04:53:18.339Z,9.75
2019-04-04T04:58:21.752Z,7.00
2019-04-04T05:03:25.809Z,9.25
2019-04-04T05:08:29.804Z,9.00
2019-04-04T05:13:33.810Z,9.25
2019-04-04T05:18:37.811Z,7.50
2019-04-04T05:23:41.873Z,9.00
2019-04-04T05:28:45.968Z,7.50
2019-04-04T05:33:49.968Z,7.25
2019-04-04T05:38:54.047Z,6.80
2019-04-04T05:43:58.117Z,7.75
2019-04-04T05:49:07.756Z,9.00
2019-04-04T05:54:08.406Z,8.00
2019-04-04T05:59:12.576Z,7.25
2019-04-04T06:04:17.261Z,7.20
2019-04-04T06:09:22.310Z,7.00
2019-04-04T06:14:29.674Z,8.40
2019-04-04T06:19:32.054Z,7.80
2019-04-04T06:24:36.067Z,8.50
2019-04-04T06:29:40.138Z,9.80
2019-04-04T06:34:44.817Z,6.40
2019-04-04T06:39:48.914Z,7.50
2019-04-04T06:44:54.258Z,7.50
2019-04-04T06:49:58.521Z,9.00
2019-04-04T06:55:02.614Z,11.40
2019-04-04T07:00:08.468Z,25.60
2019-04-04T07:05:12.567Z,30.40
2019-04-04T07:10:16.760Z,29.75
2019-04-04T07:15:20.784Z,35.25
2019-04-04T07:20:24.795Z,30.40
2019-04-04T07:25:28.798Z,29.25
2019-04-04T07:30:32.813Z,23.50
2019-04-04T07:35:36.893Z,25.00
2019-04-04T07:40:40.927Z,20.80
2019-04-04T07:45:44.953Z,17.00
2019-04-04T07:50:51.386Z,19.00
2019-04-04T07:55:54.963Z,17.20
2019-04-04T08:01:00.065Z,16.60
2019-04-04T08:06:04.161Z,17.60
2019-04-04T08:11:08.320Z,16.00
2019-04-04T08:16:12.483Z,14.00
2019-04-04T08:21:16.491Z,14.40
2019-04-04T08:26:20.660Z,13.00
2019-04-04T08:31:24.675Z,10.50
2019-04-04T08:36:28.763Z,13.25
2019-04-04T08:41:32.788Z,12.00
2019-04-04T08:46:36.971Z,8.75
2019-04-04T08:51:41.100Z,13.25
2019-04-04T08:56:45.114Z,10.60
2019-04-04T09:01:49.154Z,12.60
2019-04-04T09:06:53.159Z,13.20
2019-04-04T09:11:57.251Z,12.80
2019-04-04T09:17:01.376Z,9.20
2019-04-04T09:22:05.546Z,10.60
2019-04-04T09:27:09.571Z,13.00
2019-04-04T09:32:13.700Z,11.60
2019-04-04T09:37:17.737Z,12.00
2019-04-04T09:42:21.749Z,11.50
2019-04-04T09:47:25.856Z,12.75
2019-04-04T09:52:29.960Z,13.60
2019-04-04T09:57:33.996Z,14.80
2019-04-04T10:02:38.081Z,15.20
2019-04-04T10:07:42.195Z,13.20
2019-04-04T10:12:46.282Z,15.20
2019-04-04T10:17:50.333Z,14.20
2019-04-04T10:22:54.367Z,16.00
2019-04-04T10:27:58.450Z,13.00
2019-04-04T10:33:02.481Z,13.80
2019-04-04T10:38:06.487Z,13.50
2019-04-04T10:43:10.561Z,16.40
2019-04-04T10:48:14.606Z,18.00
2019-04-04T10:53:18.631Z,14.80
2019-04-04T10:58:22.642Z,17.00
2019-04-04T11:03:26.815Z,16.00
2019-04-04T11:08:30.921Z,16.50
2019-04-04T11:13:34.940Z,15.75
2019-04-04T11:18:38.964Z,14.80
2019-04-04T11:23:43.111Z,15.00
2019-04-04T11:28:47.121Z,29.20
2019-04-04T11:33:51.127Z,30.80
2019-04-04T11:38:55.207Z,30.40
2019-04-04T11:43:59.237Z,31.00
2019-04-04T11:49:04.065Z,31.00
2019-04-04T11:54:08.086Z,32.25
2019-04-04T11:59:12.102Z,32.00
2019-04-04T12:04:16.207Z,29.00
2019-04-04T12:09:20.231Z,26.40
2019-04-04T12:14:24.241Z,27.20
2019-04-04T12:19:28.245Z,28.80
2019-04-04T12:24:32.321Z,27.75
2019-04-04T12:29:36.387Z,27.50
2019-04-04T12:34:40.484Z,26.75
2019-04-04T12:39:44.630Z,29.00
2019-04-04T12:44:48.714Z,26.50
2019-04-04T12:49:52.808Z,29.25
2019-04-04T12:54:56.886Z,27.75
2019-04-04T13:00:00.928Z,24.25
2019-04-04T13:05:05.608Z,25.50
2019-04-04T13:10:12.057Z,17.80
2019-04-04T13:15:16.934Z,17.75
2019-04-04T13:20:21.191Z,17.80
2019-04-04T13:25:25.563Z,17.75
2019-04-04T13:30:29.568Z,17.75
2019-04-04T13:35:33.598Z,15.20
2019-04-04T13:40:45.182Z,15.75
2019-04-04T13:45:43.538Z,17.50
2019-04-04T13:50:47.632Z,12.00
2019-04-04T13:55:51.753Z,14.75
2019-04-04T14:00:55.796Z,14.50
2019-04-04T14:06:01.830Z,14.20
2019-04-04T14:11:05.651Z,15.20
2019-04-04T14:16:09.768Z,15.00
2019-04-04T14:21:13.951Z,13.00
2019-04-04T14:26:17.993Z,12.00
2019-04-04T14:31:22.003Z,12.00
2019-04-04T14:36:26.073Z,13.20
2019-04-04T14:41:30.111Z,13.20
2019-04-04T14:46:34.579Z,12.60
2019-04-04T14:51:38.597Z,12.25
2019-04-04T14:56:42.740Z,11.25
2019-04-04T15:01:46.858Z,14.25
2019-04-04T15:06:51.021Z,13.25
2019-04-04T15:11:55.107Z,13.60
2019-04-04T15:16:59.086Z,12.20
2019-04-04T15:22:03.193Z,12.80
2019-04-04T15:27:07.310Z,11.20
2019-04-04T15:32:11.468Z,13.20
2019-04-04T15:37:15.442Z,13.00
2019-04-04T15:42:19.495Z,13.00
2019-04-04T15:47:23.504Z,12.00
2019-04-04T15:52:27.549Z,11.60
2019-04-04T15:57:31.720Z,10.75
2019-04-04T16:02:35.954Z,9.75
2019-04-04T16:07:40.096Z,22.80
2019-04-04T16:12:44.089Z,31.75
2019-04-04T16:17:48.221Z,32.00
2019-04-04T16:22:52.248Z,24.75
2019-04-04T16:27:56.381Z,24.60
2019-04-04T16:33:00.503Z,23.00
2019-04-04T16:38:04.751Z,22.75
2019-04-04T16:43:08.768Z,21.75
2019-04-04T16:48:13.997Z,23.00
2019-04-04T16:53:18.271Z,23.50
2019-04-04T16:58:22.594Z,21.60
2019-04-04T17:03:26.725Z,20.50
2019-04-04T17:08:30.924Z,21.00
2019-04-04T17:13:34.987Z,22.75
2019-04-04T17:18:39.189Z,18.20
2019-04-04T17:23:43.293Z,23.40
2019-04-04T17:28:47.917Z,19.25
2019-04-04T17:33:52.643Z,18.75
2019-04-04T17:38:56.794Z,17.50
2019-04-04T17:44:01.072Z,19.25
2019-04-04T17:49:05.509Z,21.20
2019-04-04T17:54:09.695Z,19.75
2019-04-04T17:59:13.899Z,20.00
2019-04-04T18:04:17.911Z,18.75
2019-04-04T18:09:31.740Z,17.80
2019-04-04T18:14:28.368Z,18.40
2019-04-04T18:19:32.483Z,17.75
2019-04-04T18:24:36.710Z,17.40
2019-04-04T18:29:40.807Z,17.60
2019-04-04T18:34:45.241Z,17.75
2019-04-04T18:39:49.451Z,15.75
2019-04-04T18:44:53.494Z,18.20
2019-04-04T18:49:57.492Z,17.50
2019-04-04T18:55:01.525Z,17.60
2019-04-04T19:00:08.555Z,14.67
2019-04-04T19:05:13.506Z,17.75
2019-04-04T19:10:18.287Z,15.25
2019-04-04T19:15:22.440Z,16.25
2019-04-04T19:20:27.703Z,17.50
2019-04-04T19:25:31.845Z,15.80
2019-04-04T19:30:36.063Z,18.50
2019-04-04T19:35:40.257Z,15.60
2019-04-04T19:40:44.390Z,14.60
2019-04-04T19:45:48.417Z,15.75
2019-04-04T19:50:52.470Z,16.00
2019-04-04T19:55:56.625Z,16.75
2019-04-04T20:01:00.832Z,14.00
2019-04-04T20:06:05.034Z,17.50
2019-04-04T20:11:09.236Z,14.40
2019-04-04T20:16:13.268Z,14.00
2019-04-04T20:21:17.405Z,15.00
2019-04-04T20:26:21.430Z,14.75
2019-04-04T20:31:25.504Z,13.80
2019-04-04T20:36:29.771Z,12.80
2019-04-04T20:41:33.843Z,14.50
2019-04-04T20:46:37.981Z,12.40
2019-04-04T20:51:42.234Z,13.00
2019-04-04T20:56:46.415Z,12.20
2019-04-04T21:01:50.705Z,15.80
2019-04-04T21:06:54.759Z,14.00
2019-04-04T21:11:58.871Z,14.00
2019-04-04T21:17:03.102Z,12.00
2019-04-04T21:22:07.314Z,11.20
2019-04-04T21:27:11.393Z,16.25
2019-04-04T21:32:15.573Z,14.00
2019-04-04T21:37:19.705Z,15.00
2019-04-04T21:42:23.783Z,15.00
2019-04-04T21:47:27.865Z,16.50
2019-04-04T21:52:31.972Z,15.75
2019-04-04T21:57:36.133Z,14.40
2019-04-04T22:02:40.432Z,12.25
2019-04-04T22:07:44.553Z,12.25
2019-04-04T22:12:48.610Z,14.00
2019-04-04T22:17:52.778Z,15.50
2019-04-04T22:22:56.855Z,13.00
2019-04-04T22:28:00.949Z,13.50
2019-04-04T22:33:05.131Z,14.50
2019-04-04T22:38:09.335Z,17.40
2019-04-04T22:43:13.374Z,16.40
2019-04-04T22:48:18.707Z,14.75
2019-04-04T22:59:18.659Z,15.00
2019-04-04T23:04:22.685Z,11.00
2019-04-04T23:09:26.681Z,15.20
2019-04-04T23:14:30.684Z,15.00
2019-04-04T23:19:34.740Z,14.50
2019-04-04T23:24:38.887Z,13.00
2019-04-04T23:29:42.909Z,13.25
2019-04-04T23:34:47.022Z,16.00
2019-04-04T23:39:51.050Z,15.00
2019-04-04T23:45:00.983Z,14.75
2019-04-04T23:50:00.916Z,15.00
2019-04-04T23:55:05.387Z,12.00
